createdAt,value
2022-12-04T00:01:23.391Z,98754.00
2022-12-04T00:03:55.558Z,98761.00
2022-12-04T00:06:25.918Z,98756.00
2022-12-04T00:08:56.662Z,98762.00
2022-12-04T00:11:31.350Z,98757.00
2022-12-04T00:14:06.784Z,98760.00
2022-12-04T00:16:37.432Z,98772.00
2022-12-04T00:19:07.508Z,98755.00
2022-12-04T00:21:37.481Z,98760.00
2022-12-04T00:24:08.538Z,98757.00
2022-12-04T00:26:41.029Z,98755.00
2022-12-04T00:29:11.085Z,98762.00
2022-12-04T00:31:41.044Z,98759.00
2022-12-04T00:34:10.963Z,98778.00
2022-12-04T00:36:40.959Z,98778.00
2022-12-04T00:39:11.029Z,98764.00
2022-12-04T00:41:43.540Z,98752.00
2022-12-04T00:44:13.574Z,98756.00
2022-12-04T00:46:43.484Z,98767.00
2022-12-04T00:49:13.379Z,98762.00
2022-12-04T00:51:43.212Z,98759.00
2022-12-04T00:54:13.121Z,98754.00
2022-12-04T00:56:45.667Z,98759.00
2022-12-04T00:59:16.360Z,98769.00
2022-12-04T01:01:46.283Z,98755.00
2022-12-04T01:04:16.189Z,98767.00
2022-12-04T01:06:46.063Z,98762.00
2022-12-04T01:09:15.955Z,98746.00
2022-12-04T01:11:48.413Z,98744.00
2022-12-04T01:14:18.410Z,98736.00
2022-12-04T01:16:49.743Z,98739.00
2022-12-04T01:19:19.757Z,98748.00
2022-12-04T01:21:49.662Z,98724.00
2022-12-04T01:24:19.548Z,98730.00
2022-12-04T01:26:51.982Z,98724.00
2022-12-04T01:29:21.945Z,98729.00
2022-12-04T01:31:51.827Z,98722.00
2022-12-04T01:34:21.794Z,98715.00
2022-12-04T01:36:51.642Z,98711.00
2022-12-04T01:39:21.820Z,98709.00
2022-12-04T01:41:54.318Z,98712.00
2022-12-04T01:44:26.033Z,98718.00
2022-12-04T01:46:56.764Z,98716.00
2022-12-04T01:49:29.219Z,98707.00
2022-12-04T01:52:02.227Z,98707.00
2022-12-04T01:54:34.478Z,98727.00
2022-12-04T01:57:10.073Z,98726.00
2022-12-04T01:59:44.461Z,98711.00
2022-12-04T02:02:18.187Z,98719.00
2022-12-04T02:04:48.314Z,98723.00
2022-12-04T02:07:18.151Z,98729.00
2022-12-04T02:09:54.021Z,98736.00
2022-12-04T02:12:33.004Z,98735.00
2022-12-04T02:15:07.388Z,98719.00
2022-12-04T02:17:43.587Z,98729.00
2022-12-04T02:20:24.620Z,98727.00
2022-12-04T02:23:13.892Z,98717.00
2022-12-04T02:25:49.063Z,98725.00
2022-12-04T02:28:25.712Z,98719.00
2022-12-04T02:30:59.236Z,98721.00
2022-12-04T02:33:30.963Z,98710.00
2022-12-04T02:36:03.971Z,98721.00
2022-12-04T02:38:38.157Z,98724.00
2022-12-04T02:41:11.682Z,98724.00
2022-12-04T02:43:46.876Z,98739.00
2022-12-04T02:46:20.204Z,98722.00
2022-12-04T02:48:52.807Z,98730.00
2022-12-04T02:51:24.056Z,98725.00
2022-12-04T02:53:56.705Z,98730.00
2022-12-04T02:56:29.098Z,98727.00
2022-12-04T02:59:03.504Z,98728.00
2022-12-04T03:01:37.531Z,98735.00
2022-12-04T03:04:11.587Z,98730.00
2022-12-04T03:06:43.615Z,98725.00
2022-12-04T03:09:16.208Z,98739.00
2022-12-04T03:11:49.508Z,98722.00
2022-12-04T03:14:24.975Z,98720.00
2022-12-04T03:16:56.911Z,98704.00
2022-12-04T03:19:28.585Z,98706.00
2022-12-04T03:22:03.260Z,98716.00
2022-12-04T03:24:36.435Z,98704.00
2022-12-04T03:27:12.851Z,98722.00
2022-12-04T03:29:47.454Z,98697.00
2022-12-04T03:32:20.909Z,98721.00
2022-12-04T03:34:54.553Z,98700.00
2022-12-04T03:37:29.330Z,98717.00
2022-12-04T03:40:03.596Z,98708.00
2022-12-04T03:42:38.072Z,98700.00
2022-12-04T03:45:12.657Z,98701.00
2022-12-04T03:47:46.174Z,98705.00
2022-12-04T03:50:20.885Z,98705.00
2022-12-04T03:52:55.490Z,98696.00
2022-12-04T03:55:29.163Z,98696.00
2022-12-04T03:58:03.304Z,98698.00
2022-12-04T04:00:36.323Z,98696.00
2022-12-04T04:03:10.147Z,98699.00
2022-12-04T04:05:41.956Z,98689.00
2022-12-04T04:08:24.959Z,98702.00
2022-12-04T04:10:55.754Z,98698.00
2022-12-04T04:13:42.089Z,98705.00
2022-12-04T04:16:29.717Z,98711.00
2022-12-04T04:19:12.941Z,98698.00
2022-12-04T04:22:02.643Z,98708.00
2022-12-04T04:24:36.714Z,98707.00
2022-12-04T04:27:06.772Z,98708.00
2022-12-04T04:29:36.647Z,98715.00
2022-12-04T04:32:15.642Z,98707.00
2022-12-04T04:34:53.166Z,98694.00
2022-12-04T04:37:29.715Z,98710.00
2022-12-04T04:40:05.880Z,98702.00
2022-12-04T04:42:39.327Z,98714.00
2022-12-04T04:45:11.555Z,98706.00
2022-12-04T04:47:49.056Z,98704.00
2022-12-04T04:50:20.224Z,98712.00
2022-12-04T04:52:52.516Z,98702.00
2022-12-04T04:55:23.149Z,98708.00
2022-12-04T04:57:53.052Z,98708.00
2022-12-04T05:00:27.251Z,98712.00
2022-12-04T05:02:59.810Z,98703.00
2022-12-04T05:05:29.873Z,98688.00
2022-12-04T05:07:59.951Z,98695.00
2022-12-04T05:10:29.934Z,98700.00
2022-12-04T05:12:59.783Z,98703.00
2022-12-04T05:15:29.708Z,98704.00
2022-12-04T05:18:02.199Z,98706.00
2022-12-04T05:20:29.641Z,98707.00
2022-12-04T05:22:59.433Z,98707.00
2022-12-04T05:25:29.415Z,98705.00
2022-12-04T05:27:59.350Z,98708.00
2022-12-04T05:30:29.165Z,98714.00
2022-12-04T05:33:01.712Z,98716.00
2022-12-04T05:35:31.638Z,98707.00
2022-12-04T05:38:01.489Z,98718.00
2022-12-04T05:40:31.375Z,98697.00
2022-12-04T05:43:01.175Z,98698.00
2022-12-04T05:45:31.116Z,98705.00
2022-12-04T05:48:03.597Z,98711.00
2022-12-04T05:50:33.671Z,98713.00
2022-12-04T05:53:03.527Z,98702.00
2022-12-04T05:55:33.375Z,98709.00
2022-12-04T05:58:03.554Z,98702.00
2022-12-04T06:00:33.653Z,98691.00
2022-12-04T06:03:06.400Z,98700.00
2022-12-04T06:05:36.376Z,98711.00
2022-12-04T06:08:06.498Z,98715.00
2022-12-04T06:10:36.447Z,98717.00
2022-12-04T06:13:07.874Z,98717.00
2022-12-04T06:15:41.134Z,98715.00
2022-12-04T06:18:13.606Z,98742.00
2022-12-04T06:20:43.585Z,98730.00
2022-12-04T06:23:13.577Z,98722.00
2022-12-04T06:25:43.470Z,98715.00
2022-12-04T06:28:13.323Z,98729.00
2022-12-04T06:30:43.143Z,98729.00
2022-12-04T06:33:15.628Z,98725.00
2022-12-04T06:35:45.507Z,98725.00
2022-12-04T06:38:15.398Z,98719.00
2022-12-04T06:40:45.246Z,98727.00
2022-12-04T06:43:15.134Z,98731.00
2022-12-04T06:45:45.100Z,98728.00
2022-12-04T06:48:17.587Z,98723.00
2022-12-04T06:50:47.591Z,98730.00
2022-12-04T06:53:17.428Z,98727.00
2022-12-04T06:55:51.663Z,98741.00
2022-12-04T06:58:21.635Z,98732.00
2022-12-04T07:00:51.608Z,98732.00
2022-12-04T07:03:24.822Z,98726.00
2022-12-04T07:05:55.092Z,98728.00
2022-12-04T07:08:24.940Z,98722.00
2022-12-04T07:10:59.191Z,98728.00
2022-12-04T07:13:29.371Z,98713.00
2022-12-04T07:16:02.311Z,98715.00
2022-12-04T07:18:36.481Z,98710.00
2022-12-04T07:21:09.024Z,98711.00
2022-12-04T07:23:39.420Z,98693.00
2022-12-04T07:26:09.987Z,98695.00
2022-12-04T07:28:40.193Z,98705.00
2022-12-04T07:31:11.857Z,98702.00
2022-12-04T07:33:45.152Z,98694.00
2022-12-04T07:36:17.166Z,98682.00
2022-12-04T07:38:47.083Z,98696.00
2022-12-04T07:41:17.383Z,98700.00
2022-12-04T07:43:47.317Z,98694.00
2022-12-04T07:46:18.912Z,98706.00
2022-12-04T07:48:51.700Z,98723.00
2022-12-04T07:51:23.372Z,98724.00
2022-12-04T07:53:54.259Z,98717.00
2022-12-04T07:56:24.665Z,98717.00
2022-12-04T07:58:54.644Z,98722.00
2022-12-04T08:01:25.813Z,98734.00
2022-12-04T08:04:18.537Z,98739.00
2022-12-04T08:06:48.746Z,98744.00
2022-12-04T08:09:18.663Z,98741.00
2022-12-04T08:11:48.549Z,98745.00
2022-12-04T08:14:18.541Z,98732.00
2022-12-04T08:16:52.684Z,98726.00
2022-12-04T08:19:25.579Z,98727.00
2022-12-04T08:21:57.795Z,98731.00
2022-12-04T08:24:27.644Z,98741.00
2022-12-04T08:26:57.602Z,98733.00
2022-12-04T08:29:27.476Z,98735.00
2022-12-04T08:31:57.321Z,98740.00
2022-12-04T08:34:29.720Z,98738.00
2022-12-04T08:36:59.648Z,98746.00
2022-12-04T08:39:29.572Z,98727.00
2022-12-04T08:41:59.499Z,98729.00
2022-12-04T08:44:29.353Z,98741.00
2022-12-04T08:46:59.224Z,98740.00
2022-12-04T08:49:31.726Z,98738.00
2022-12-04T08:52:01.652Z,98742.00
2022-12-04T08:54:35.981Z,98742.00
2022-12-04T08:57:06.444Z,98740.00
2022-12-04T08:59:36.454Z,98742.00
2022-12-04T09:02:06.438Z,98748.00
2022-12-04T09:04:40.434Z,98741.00
2022-12-04T09:07:10.301Z,98743.00
2022-12-04T09:09:55.398Z,98731.00
2022-12-04T09:12:25.446Z,98736.00
2022-12-04T09:14:55.280Z,98740.00
2022-12-04T09:17:25.158Z,98742.00
2022-12-04T09:20:01.001Z,98749.00
2022-12-04T09:22:51.284Z,98743.00
2022-12-04T09:25:21.806Z,98743.00
2022-12-04T09:27:51.752Z,98739.00
2022-12-04T09:30:21.887Z,98735.00
2022-12-04T09:32:51.735Z,98734.00
2022-12-04T09:35:24.366Z,98722.00
2022-12-04T09:37:54.183Z,98725.00
2022-12-04T09:40:36.849Z,98737.00
2022-12-04T09:43:13.019Z,98743.00
2022-12-04T09:45:47.241Z,98743.00
2022-12-04T09:48:19.548Z,98746.00
2022-12-04T09:50:52.788Z,98748.00
2022-12-04T09:53:25.332Z,98737.00
2022-12-04T09:55:58.404Z,98730.00
2022-12-04T09:58:31.672Z,98727.00
2022-12-04T10:01:02.144Z,98729.00
2022-12-04T10:03:33.526Z,98740.00
2022-12-04T10:06:11.857Z,98712.00
2022-12-04T10:08:43.598Z,98707.00
2022-12-04T10:11:17.035Z,98707.00
2022-12-04T10:14:00.406Z,98701.00
2022-12-04T10:16:38.858Z,98706.00
2022-12-04T10:19:15.825Z,98713.00
2022-12-04T10:21:59.604Z,98704.00
2022-12-04T10:24:40.714Z,98707.00
2022-12-04T10:27:15.541Z,98708.00
2022-12-04T10:29:46.630Z,98707.00
2022-12-04T10:32:20.732Z,98710.00
2022-12-04T10:34:52.537Z,98698.00
2022-12-04T10:37:25.615Z,98697.00
2022-12-04T10:39:59.184Z,98697.00
2022-12-04T10:42:34.619Z,98686.00
2022-12-04T10:45:04.545Z,98677.00
2022-12-04T10:47:34.528Z,98690.00
2022-12-04T10:50:07.000Z,98693.00
2022-12-04T10:52:39.517Z,98691.00
2022-12-04T10:55:10.008Z,98686.00
2022-12-04T10:57:41.548Z,98687.00
2022-12-04T11:00:27.485Z,98691.00
2022-12-04T11:02:59.106Z,98688.00
2022-12-04T11:05:32.166Z,98696.00
2022-12-04T11:08:07.505Z,98700.00
2022-12-04T11:10:39.912Z,98694.00
2022-12-04T11:13:18.170Z,98687.00
2022-12-04T11:15:49.409Z,98670.00
2022-12-04T11:18:21.852Z,98686.00
2022-12-04T11:20:57.877Z,98682.00
2022-12-04T11:23:35.401Z,98674.00
2022-12-04T11:26:06.566Z,98683.00
2022-12-04T11:28:42.098Z,98683.00
2022-12-04T11:31:14.332Z,98693.00
2022-12-04T11:33:48.953Z,98694.00
2022-12-04T11:36:24.063Z,98697.00
2022-12-04T11:39:06.041Z,98707.00
2022-12-04T11:41:36.573Z,98695.00
2022-12-04T11:44:08.587Z,98693.00
2022-12-04T11:46:38.535Z,98696.00
2022-12-04T11:49:08.719Z,98701.00
2022-12-04T11:51:47.820Z,98697.00
2022-12-04T11:54:28.932Z,98687.00
2022-12-04T11:57:04.981Z,98685.00
2022-12-04T12:00:03.990Z,98678.00
2022-12-04T12:02:49.839Z,98685.00
2022-12-04T12:05:46.945Z,98670.00
2022-12-04T12:08:23.266Z,98674.00
2022-12-04T12:11:05.866Z,98670.00
2022-12-04T12:13:41.322Z,98666.00
2022-12-04T12:16:18.100Z,98660.00
2022-12-04T12:19:08.469Z,98672.00
2022-12-04T12:21:44.487Z,98671.00
2022-12-04T12:24:30.151Z,98675.00
2022-12-04T12:27:14.564Z,98667.00
2022-12-04T12:29:53.210Z,98678.00
2022-12-04T12:32:39.578Z,98670.00
2022-12-04T12:35:19.323Z,98676.00
2022-12-04T12:37:51.815Z,98673.00
2022-12-04T12:40:29.825Z,98666.00
2022-12-04T12:43:05.919Z,98674.00
2022-12-04T12:45:42.945Z,98669.00
2022-12-04T12:48:22.133Z,98676.00
2022-12-04T12:53:51.423Z,98669.00
2022-12-04T12:56:34.299Z,98664.00
2022-12-04T12:59:08.953Z,98664.00
2022-12-04T13:01:45.459Z,98662.00
2022-12-04T13:04:21.575Z,98660.00
2022-12-04T13:06:57.433Z,98662.00
2022-12-04T13:09:31.942Z,98658.00
2022-12-04T13:12:05.575Z,98669.00
2022-12-04T13:14:38.087Z,98667.00
2022-12-04T13:17:14.179Z,98659.00
2022-12-04T13:19:47.770Z,98662.00
2022-12-04T13:22:21.759Z,98667.00
2022-12-04T13:25:13.122Z,98672.00
2022-12-04T13:27:49.791Z,98666.00
2022-12-04T13:30:23.807Z,98674.00
2022-12-04T13:33:35.840Z,98674.00
2022-12-04T13:36:19.571Z,98668.00
2022-12-04T13:39:00.534Z,98681.00
2022-12-04T13:41:31.431Z,98677.00
2022-12-04T13:44:07.096Z,98675.00
2022-12-04T13:46:42.331Z,98673.00
2022-12-04T13:49:27.616Z,98671.00
2022-12-04T13:51:59.390Z,98673.00
2022-12-04T13:54:32.241Z,98680.00
2022-12-04T13:57:20.357Z,98677.00
2022-12-04T13:59:50.930Z,98672.00
2022-12-04T14:02:32.380Z,98684.00
2022-12-04T14:05:04.432Z,98682.00
2022-12-04T14:07:37.223Z,98683.00
2022-12-04T14:10:10.311Z,98670.00
2022-12-04T14:12:42.863Z,98669.00
2022-12-04T14:15:24.075Z,98668.00
2022-12-04T14:18:04.349Z,98666.00
2022-12-04T14:20:36.075Z,98669.00
2022-12-04T14:23:13.721Z,98674.00
2022-12-04T14:25:43.711Z,98669.00
2022-12-04T14:28:30.902Z,98679.00
2022-12-04T14:31:06.997Z,98674.00
2022-12-04T14:33:42.206Z,98662.00
2022-12-04T14:36:19.066Z,98670.00
2022-12-04T14:38:49.493Z,98666.00
2022-12-04T14:41:26.889Z,98673.00
2022-12-04T14:43:56.984Z,98669.00
2022-12-04T14:46:31.331Z,98660.00
2022-12-04T14:49:14.012Z,98655.00
2022-12-04T14:51:49.753Z,98663.00
2022-12-04T14:54:26.844Z,98672.00
2022-12-04T14:57:09.283Z,98662.00
2022-12-04T14:59:45.005Z,98658.00
2022-12-04T15:02:16.326Z,98666.00
2022-12-04T15:04:49.688Z,98667.00
2022-12-04T15:07:23.969Z,98651.00
2022-12-04T15:10:07.751Z,98669.00
2022-12-04T15:12:43.684Z,98670.00
2022-12-04T15:15:22.254Z,98678.00
2022-12-04T15:17:59.971Z,98673.00
2022-12-04T15:20:39.109Z,98670.00
2022-12-04T15:23:09.554Z,98661.00
2022-12-04T15:25:44.670Z,98672.00
2022-12-04T15:28:17.108Z,98680.00
2022-12-04T15:30:49.136Z,98685.00
2022-12-04T15:33:23.325Z,98680.00
2022-12-04T15:35:58.363Z,98673.00
2022-12-04T15:38:28.374Z,98672.00
2022-12-04T15:40:59.921Z,98666.00
2022-12-04T15:43:32.497Z,98675.00
2022-12-04T15:46:03.766Z,98668.00
2022-12-04T15:48:34.445Z,98666.00
2022-12-04T15:51:08.487Z,98660.00
2022-12-04T15:53:40.159Z,98662.00
2022-12-04T15:56:12.868Z,98671.00
2022-12-04T15:58:43.196Z,98661.00
2022-12-04T16:01:15.883Z,98668.00
2022-12-04T16:03:49.785Z,98665.00
2022-12-04T16:06:24.142Z,98665.00
2022-12-04T16:08:55.601Z,98656.00
2022-12-04T16:11:33.368Z,98665.00
2022-12-04T16:14:18.895Z,98661.00
2022-12-04T16:16:50.346Z,98656.00
2022-12-04T16:19:27.601Z,98673.00
2022-12-04T16:22:00.348Z,98662.00
2022-12-04T16:24:30.243Z,98670.00
2022-12-04T16:27:01.074Z,98669.00
2022-12-04T16:29:31.632Z,98679.00
2022-12-04T16:32:03.604Z,98676.00
2022-12-04T16:34:33.820Z,98681.00
2022-12-04T16:37:12.859Z,98674.00
2022-12-04T16:39:42.912Z,98672.00
2022-12-04T16:42:18.808Z,98681.00
2022-12-04T16:44:49.094Z,98677.00
2022-12-04T16:47:19.701Z,98678.00
2022-12-04T16:49:51.970Z,98670.00
2022-12-04T16:52:24.778Z,98682.00
2022-12-04T16:54:55.013Z,98671.00
2022-12-04T16:57:26.005Z,98675.00
2022-12-04T16:59:56.108Z,98673.00
2022-12-04T17:02:29.452Z,98664.00
2022-12-04T17:04:59.944Z,98671.00
2022-12-04T17:07:32.644Z,98672.00
2022-12-04T17:10:02.587Z,98667.00
2022-12-04T17:12:32.460Z,98665.00
2022-12-04T17:15:02.294Z,98686.00
2022-12-04T17:17:32.457Z,98667.00
2022-12-04T17:20:02.478Z,98684.00
2022-12-04T17:22:35.120Z,98675.00
2022-12-04T17:25:05.225Z,98688.00
2022-12-04T17:27:35.173Z,98672.00
2022-12-04T17:30:05.160Z,98677.00
2022-12-04T17:32:35.244Z,98683.00
2022-12-04T17:35:05.500Z,98678.00
2022-12-04T17:37:38.899Z,98683.00
2022-12-04T17:40:10.546Z,98685.00
2022-12-04T17:42:40.457Z,98684.00
2022-12-04T17:45:12.304Z,98684.00
2022-12-04T17:47:42.311Z,98680.00
2022-12-04T17:50:13.213Z,98666.00
2022-12-04T17:52:45.701Z,98678.00
2022-12-04T17:55:15.607Z,98672.00
2022-12-04T17:57:45.538Z,98680.00
2022-12-04T18:00:16.089Z,98658.00
2022-12-04T18:02:51.581Z,98671.00
2022-12-04T18:05:23.033Z,98671.00
2022-12-04T18:07:55.691Z,98666.00
2022-12-04T18:10:25.645Z,98653.00
2022-12-04T18:12:55.583Z,98667.00
2022-12-04T18:15:25.508Z,98672.00
2022-12-04T18:17:57.170Z,98664.00
2022-12-04T18:20:27.080Z,98667.00
2022-12-04T18:22:59.558Z,98660.00
2022-12-04T18:25:29.439Z,98669.00
2022-12-04T18:27:59.348Z,98664.00
2022-12-04T18:30:29.291Z,98674.00
2022-12-04T18:32:59.203Z,98667.00
2022-12-04T18:35:29.094Z,98665.00
2022-12-04T18:38:01.638Z,98673.00
2022-12-04T18:40:31.553Z,98661.00
2022-12-04T18:43:01.448Z,98662.00
2022-12-04T18:45:32.521Z,98657.00
2022-12-04T18:48:02.506Z,98663.00
2022-12-04T18:50:32.438Z,98651.00
2022-12-04T18:53:05.020Z,98666.00
2022-12-04T18:55:38.098Z,98643.00
2022-12-04T18:58:08.036Z,98653.00
2022-12-04T19:00:38.829Z,98647.00
2022-12-04T19:03:09.699Z,98652.00
2022-12-04T19:05:39.571Z,98665.00
2022-12-04T19:08:12.284Z,98667.00
2022-12-04T19:10:42.213Z,98665.00
2022-12-04T19:13:12.242Z,98671.00
2022-12-04T19:15:45.131Z,98656.00
2022-12-04T19:18:15.197Z,98660.00
2022-12-04T19:20:45.774Z,98654.00
2022-12-04T19:23:18.288Z,98655.00
2022-12-04T19:25:48.954Z,98651.00
2022-12-04T19:28:18.848Z,98654.00
2022-12-04T19:30:48.652Z,98666.00
2022-12-04T19:33:18.603Z,98663.00
2022-12-04T19:36:00.027Z,98656.00
2022-12-04T19:38:51.091Z,98654.00
2022-12-04T19:41:23.209Z,98656.00
2022-12-04T19:43:55.168Z,98658.00
2022-12-04T19:46:26.538Z,98656.00
2022-12-04T19:48:58.278Z,98656.00
2022-12-04T19:51:28.717Z,98659.00
2022-12-04T19:54:01.410Z,98666.00
2022-12-04T19:56:33.154Z,98664.00
2022-12-04T19:59:04.893Z,98656.00
2022-12-04T20:01:36.131Z,98663.00
2022-12-04T20:04:08.090Z,98662.00
2022-12-04T20:06:39.681Z,98676.00
2022-12-04T20:09:13.770Z,98675.00
2022-12-04T20:11:44.130Z,98666.00
2022-12-04T20:14:14.163Z,98689.00
2022-12-04T20:16:44.208Z,98676.00
2022-12-04T20:19:17.290Z,98676.00
2022-12-04T20:21:48.052Z,98672.00
2022-12-04T20:24:20.692Z,98686.00
2022-12-04T20:26:50.862Z,98670.00
2022-12-04T20:29:21.898Z,98682.00
2022-12-04T20:31:51.785Z,98675.00
2022-12-04T20:34:22.139Z,98674.00
2022-12-04T20:36:52.298Z,98662.00
2022-12-04T20:50:49.445Z,98666.00
2022-12-04T20:53:19.340Z,98668.00
2022-12-04T20:55:55.922Z,98663.00
2022-12-04T20:58:26.232Z,98668.00
2022-12-04T21:00:56.166Z,98652.00
2022-12-04T21:03:26.062Z,98659.00
2022-12-04T21:05:58.637Z,98660.00
2022-12-04T21:08:40.701Z,98662.00
2022-12-04T21:11:10.648Z,98663.00
2022-12-04T21:13:53.053Z,98653.00
2022-12-04T21:16:23.120Z,98645.00
2022-12-04T21:18:53.049Z,98642.00
2022-12-04T21:21:25.579Z,98647.00
2022-12-04T21:23:55.732Z,98627.00
2022-12-04T21:26:29.203Z,98645.00
2022-12-04T21:28:59.126Z,98641.00
2022-12-04T21:31:29.974Z,98641.00
2022-12-04T21:34:00.488Z,98642.00
2022-12-04T21:36:33.007Z,98635.00
2022-12-04T21:39:03.271Z,98645.00
2022-12-04T21:41:45.650Z,98636.00
2022-12-04T21:44:17.928Z,98624.00
2022-12-04T21:46:48.646Z,98621.00
2022-12-04T21:49:19.586Z,98637.00
2022-12-04T21:51:59.600Z,98627.00
2022-12-04T21:54:29.827Z,98630.00
2022-12-04T21:57:00.220Z,98630.00
2022-12-04T21:59:30.265Z,98639.00
2022-12-04T22:02:00.255Z,98638.00
2022-12-04T22:04:30.386Z,98639.00
2022-12-04T22:07:03.014Z,98627.00
2022-12-04T22:09:32.952Z,98634.00
2022-12-04T22:12:14.715Z,98628.00
2022-12-04T22:14:52.782Z,98626.00
2022-12-04T22:17:22.749Z,98633.00
2022-12-04T22:19:52.632Z,98631.00
2022-12-04T22:22:25.140Z,98623.00
2022-12-04T22:24:55.036Z,98623.00
2022-12-04T22:27:24.906Z,98630.00
2022-12-04T22:29:55.090Z,98610.00
2022-12-04T22:32:24.983Z,98611.00
2022-12-04T22:34:54.923Z,98609.00
2022-12-04T22:37:27.416Z,98613.00
2022-12-04T22:39:57.590Z,98609.00
2022-12-04T22:42:27.736Z,98609.00
2022-12-04T22:44:57.624Z,98618.00
2022-12-04T22:47:27.551Z,98609.00
2022-12-04T22:49:57.752Z,98612.00
2022-12-04T22:52:32.341Z,98611.00
2022-12-04T22:55:02.325Z,98607.00
2022-12-04T22:57:32.240Z,98611.00
2022-12-04T23:00:02.150Z,98606.00
2022-12-04T23:02:31.960Z,98610.00
2022-12-04T23:05:01.956Z,98607.00
2022-12-04T23:07:34.567Z,98616.00
2022-12-04T23:10:04.499Z,98628.00
2022-12-04T23:12:34.398Z,98618.00
2022-12-04T23:15:04.293Z,98613.00
2022-12-04T23:17:34.196Z,98605.00
2022-12-04T23:20:04.082Z,98600.00
2022-12-04T23:22:39.408Z,98601.00
2022-12-04T23:25:10.944Z,98611.00
2022-12-04T23:27:40.832Z,98601.00
2022-12-04T23:30:11.870Z,98602.00
2022-12-04T23:32:41.687Z,98600.00
2022-12-04T23:35:12.411Z,98609.00
2022-12-04T23:37:44.918Z,98593.00
2022-12-04T23:40:15.538Z,98587.00
2022-12-04T23:42:45.365Z,98593.00
2022-12-04T23:45:15.221Z,98606.00
2022-12-04T23:47:45.075Z,98587.00
2022-12-04T23:50:14.882Z,98589.00
2022-12-04T23:52:47.401Z,98590.00
2022-12-04T23:55:17.525Z,98592.00
2022-12-04T23:57:47.483Z,98584.00
